COOK73 OPKD-ZUUU
Flight info
| Callsign | COOK73 |
|---|---|
| Flight time | N/A |
| Altitude | 39000 |
| Route | DOVDO R462 RAMSA Z15 JDP W58 JJP J20 LKN W86 APIPU G598 SMR G336 KTM B345 NONIM/K0824S1190 B345 OLGUT Y3 ENPAT W260 BIGOR W9 LADUP LADUP2E |
| Aircraft | C25C/M-SDE2E3FGHRWXY/LB1 |
Departure
| Time | N/A |
|---|---|
| Airport | Hyderabad Airport (OPKD) |
Arrival
| Time | 2026-05-03 22:00 |
|---|---|
| Airport | Chengdu Shuangliu International Airport (ZUUU) |
| Time | Latitude | Longitude | Altitude | Speed | Heading |
|---|---|---|---|---|---|
| 2026-05-03 20:15 | 28.45151 | 91.20231 | 39115 ft | 483 kts | 90° |
| 2026-05-03 20:15 | 28.45013 | 91.27857 | 39120 ft | 482 kts | 90° |
| 2026-05-03 20:16 | 28.44874 | 91.35464 | 39120 ft | 481 kts | 90° |
| 2026-05-03 20:16 | 28.44732 | 91.43049 | 39120 ft | 480 kts | 90° |
| 2026-05-03 20:17 | 28.44585 | 91.50588 | 39123 ft | 480 kts | 91° |
| 2026-05-03 20:17 | 28.44435 | 91.58168 | 39126 ft | 480 kts | 90° |
| 2026-05-03 20:18 | 28.44279 | 91.65736 | 39122 ft | 479 kts | 90° |
| 2026-05-03 20:18 | 28.44122 | 91.73312 | 39126 ft | 479 kts | 91° |
| 2026-05-03 20:19 | 28.43958 | 91.80870 | 39124 ft | 478 kts | 90° |
| 2026-05-03 20:19 | 28.43790 | 91.88424 | 39121 ft | 478 kts | 91° |
| 2026-05-03 20:20 | 28.43616 | 91.95954 | 39126 ft | 476 kts | 90° |
| 2026-05-03 20:20 | 28.43447 | 92.03430 | 39127 ft | 477 kts | 91° |
| 2026-05-03 20:21 | 28.43266 | 92.10965 | 39126 ft | 476 kts | 91° |
| 2026-05-03 20:21 | 28.43355 | 92.18452 | 39120 ft | 472 kts | 81° |
| 2026-05-03 20:22 | 28.44933 | 92.25650 | 39120 ft | 468 kts | 65° |
| 2026-05-03 20:22 | 28.47787 | 92.32235 | 39133 ft | 465 kts | 58° |
| 2026-05-03 20:23 | 28.50771 | 92.38765 | 39136 ft | 466 kts | 58° |
| 2026-05-03 20:23 | 28.53770 | 92.45308 | 39143 ft | 467 kts | 58° |
| 2026-05-03 20:24 | 28.56753 | 92.51841 | 39151 ft | 466 kts | 58° |
| 2026-05-03 20:24 | 28.59742 | 92.58392 | 39150 ft | 466 kts | 58° |
| 2026-05-03 20:25 | 28.62740 | 92.64970 | 39147 ft | 470 kts | 59° |
| 2026-05-03 20:25 | 28.65744 | 92.71582 | 39154 ft | 470 kts | 58° |
| 2026-05-03 20:26 | 28.68744 | 92.78187 | 39150 ft | 469 kts | 58° |
| 2026-05-03 20:26 | 28.71737 | 92.84792 | 39159 ft | 469 kts | 58° |
| 2026-05-03 20:27 | 28.74721 | 92.91385 | 39146 ft | 468 kts | 58° |
| 2026-05-03 20:27 | 28.77695 | 92.97968 | 39141 ft | 467 kts | 58° |
| 2026-05-03 20:28 | 28.80665 | 93.04554 | 39135 ft | 467 kts | 58° |
| 2026-05-03 20:28 | 28.83625 | 93.11130 | 39134 ft | 466 kts | 58° |
| 2026-05-03 20:29 | 28.86561 | 93.17660 | 39147 ft | 465 kts | 58° |
| 2026-05-03 20:29 | 28.89509 | 93.24231 | 39148 ft | 464 kts | 58° |
| 2026-05-03 20:30 | 28.92455 | 93.30801 | 39148 ft | 463 kts | 58° |
| 2026-05-03 20:30 | 28.95385 | 93.37356 | 39160 ft | 464 kts | 58° |
| 2026-05-03 20:31 | 28.98324 | 93.43930 | 39158 ft | 465 kts | 58° |
| 2026-05-03 20:31 | 29.01261 | 93.50521 | 39158 ft | 465 kts | 59° |
| 2026-05-03 20:32 | 29.04183 | 93.57100 | 39188 ft | 461 kts | 58° |
| 2026-05-03 20:32 | 29.07107 | 93.63657 | 39172 ft | 464 kts | 58° |
| 2026-05-03 20:33 | 29.10033 | 93.70269 | 39157 ft | 465 kts | 59° |
| 2026-05-03 20:33 | 29.12966 | 93.76879 | 39182 ft | 467 kts | 58° |
| 2026-05-03 20:34 | 29.15893 | 93.83491 | 39182 ft | 470 kts | 58° |
| 2026-05-03 20:34 | 29.18842 | 93.90199 | 39147 ft | 472 kts | 58° |
| 2026-05-03 20:35 | 29.21794 | 93.96884 | 39165 ft | 470 kts | 58° |
| 2026-05-03 20:35 | 29.24237 | 94.02440 | 39158 ft | 472 kts | 58° |
| 2026-05-03 20:36 | 29.27189 | 94.09159 | 39166 ft | 473 kts | 58° |
| 2026-05-03 20:36 | 29.30143 | 94.15896 | 39176 ft | 473 kts | 58° |
| 2026-05-03 20:37 | 29.33102 | 94.22656 | 39158 ft | 474 kts | 58° |
| 2026-05-03 20:37 | 29.36058 | 94.29421 | 39159 ft | 473 kts | 58° |
| 2026-05-03 20:38 | 29.39000 | 94.36163 | 39159 ft | 473 kts | 58° |
| 2026-05-03 20:38 | 29.41891 | 94.42889 | 39156 ft | 475 kts | 61° |
| 2026-05-03 20:39 | 29.43771 | 94.50207 | 39150 ft | 483 kts | 77° |
| 2026-05-03 20:39 | 29.44844 | 94.57825 | 39157 ft | 483 kts | 77° |
| 2026-05-03 20:40 | 29.45926 | 94.65440 | 39155 ft | 483 kts | 77° |
| 2026-05-03 20:40 | 29.46996 | 94.73058 | 39152 ft | 483 kts | 78° |
| 2026-05-03 20:41 | 29.48064 | 94.80665 | 39141 ft | 483 kts | 77° |
| 2026-05-03 20:41 | 29.49128 | 94.88293 | 39139 ft | 485 kts | 77° |
| 2026-05-03 20:42 | 29.50192 | 94.95944 | 39140 ft | 486 kts | 76° |
| 2026-05-03 20:42 | 29.51255 | 95.03635 | 39144 ft | 489 kts | 77° |
| 2026-05-03 20:43 | 29.52319 | 95.11360 | 39119 ft | 490 kts | 77° |
| 2026-05-03 20:43 | 29.53369 | 95.19004 | 39124 ft | 484 kts | 77° |
| 2026-05-03 20:44 | 29.54400 | 95.26596 | 39110 ft | 479 kts | 77° |
| 2026-05-03 20:44 | 29.55433 | 95.34147 | 39109 ft | 479 kts | 77° |
| 2026-05-03 20:45 | 29.56457 | 95.41726 | 39116 ft | 481 kts | 77° |
| 2026-05-03 20:45 | 29.57482 | 95.49326 | 39129 ft | 483 kts | 77° |
| 2026-05-03 20:46 | 29.58505 | 95.56958 | 39136 ft | 484 kts | 77° |
| 2026-05-03 20:46 | 29.59528 | 95.64615 | 39143 ft | 485 kts | 77° |
| 2026-05-03 20:47 | 29.60541 | 95.72247 | 39160 ft | 485 kts | 77° |
| 2026-05-03 20:47 | 29.61555 | 95.79914 | 39160 ft | 486 kts | 77° |
| 2026-05-03 20:48 | 29.62565 | 95.87593 | 39183 ft | 485 kts | 77° |
| 2026-05-03 20:48 | 29.63574 | 95.95298 | 39179 ft | 487 kts | 77° |
| 2026-05-03 20:49 | 29.64581 | 96.03017 | 39194 ft | 489 kts | 77° |
| 2026-05-03 20:49 | 29.65584 | 96.10742 | 39192 ft | 489 kts | 77° |
| 2026-05-03 20:50 | 29.66587 | 96.18492 | 39179 ft | 491 kts | 78° |
| 2026-05-03 20:50 | 29.67574 | 96.26192 | 39205 ft | 491 kts | 77° |
| 2026-05-03 20:51 | 29.68573 | 96.34002 | 39197 ft | 495 kts | 77° |
| 2026-05-03 20:51 | 29.69581 | 96.41900 | 39173 ft | 500 kts | 78° |
| 2026-05-03 20:52 | 29.70577 | 96.49775 | 39194 ft | 495 kts | 77° |
| 2026-05-03 20:52 | 29.71568 | 96.57602 | 39185 ft | 495 kts | 78° |
| 2026-05-03 20:53 | 29.72550 | 96.65442 | 39185 ft | 495 kts | 78° |
| 2026-05-03 20:53 | 29.73527 | 96.73272 | 39183 ft | 493 kts | 77° |
| 2026-05-03 20:54 | 29.74500 | 96.81091 | 39187 ft | 493 kts | 77° |
| 2026-05-03 20:54 | 29.75946 | 96.92795 | 39186 ft | 491 kts | 78° |
| 2026-05-03 20:55 | 29.76901 | 97.00577 | 39177 ft | 490 kts | 77° |
| 2026-05-03 20:55 | 29.77850 | 97.08360 | 39190 ft | 494 kts | 77° |
| 2026-05-03 20:56 | 29.78808 | 97.16217 | 39159 ft | 496 kts | 78° |
| 2026-05-03 20:56 | 29.79748 | 97.24011 | 39158 ft | 493 kts | 78° |
| 2026-05-03 20:57 | 29.80685 | 97.31800 | 39168 ft | 492 kts | 77° |
| 2026-05-03 20:57 | 29.81623 | 97.39624 | 39150 ft | 493 kts | 78° |
| 2026-05-03 20:58 | 29.82552 | 97.47424 | 39146 ft | 491 kts | 78° |
| 2026-05-03 20:58 | 29.83474 | 97.55214 | 39153 ft | 491 kts | 78° |
| 2026-05-03 20:59 | 29.84396 | 97.63019 | 39140 ft | 493 kts | 78° |
| 2026-05-03 20:59 | 29.85314 | 97.70856 | 39148 ft | 493 kts | 78° |
| 2026-05-03 21:00 | 29.86073 | 97.77356 | 39160 ft | 492 kts | 78° |
| 2026-05-03 21:00 | 29.87132 | 97.86480 | 39164 ft | 490 kts | 78° |
| 2026-05-03 21:01 | 29.88027 | 97.94231 | 39165 ft | 488 kts | 78° |
| 2026-05-03 21:01 | 29.88909 | 98.01916 | 39168 ft | 487 kts | 78° |
| 2026-05-03 21:02 | 29.89792 | 98.09642 | 39162 ft | 487 kts | 77° |
| 2026-05-03 21:02 | 29.90672 | 98.17396 | 39173 ft | 489 kts | 79° |
| 2026-05-03 21:03 | 29.91552 | 98.25168 | 39170 ft | 488 kts | 78° |
| 2026-05-03 21:03 | 29.92425 | 98.32926 | 39164 ft | 489 kts | 78° |
| 2026-05-03 21:04 | 29.93289 | 98.40680 | 39170 ft | 488 kts | 78° |
| 2026-05-03 21:04 | 29.94159 | 98.48463 | 39172 ft | 489 kts | 79° |
| 2026-05-03 21:05 | 29.95016 | 98.56241 | 39169 ft | 490 kts | 79° |
| 2026-05-03 21:05 | 29.95876 | 98.64037 | 39173 ft | 491 kts | 78° |
| 2026-05-03 21:06 | 29.96730 | 98.71859 | 39173 ft | 491 kts | 79° |
| 2026-05-03 21:06 | 29.97583 | 98.79694 | 39180 ft | 492 kts | 79° |
| 2026-05-03 21:07 | 29.98431 | 98.87534 | 39180 ft | 494 kts | 79° |
| 2026-05-03 21:07 | 29.99279 | 98.95427 | 39169 ft | 498 kts | 79° |
| 2026-05-03 21:08 | 30.00122 | 99.03299 | 39180 ft | 499 kts | 79° |
| 2026-05-03 21:08 | 30.01267 | 99.11156 | 39177 ft | 493 kts | 70° |
| 2026-05-03 21:09 | 30.03471 | 99.18584 | 39189 ft | 489 kts | 65° |
| 2026-05-03 21:09 | 30.05729 | 99.26007 | 39196 ft | 490 kts | 65° |
| 2026-05-03 21:10 | 30.07994 | 99.33419 | 39186 ft | 491 kts | 65° |
| 2026-05-03 21:10 | 30.10253 | 99.40858 | 39191 ft | 490 kts | 65° |
| 2026-05-03 21:11 | 30.12503 | 99.48271 | 39210 ft | 488 kts | 65° |
| 2026-05-03 21:11 | 30.14742 | 99.55659 | 39224 ft | 488 kts | 65° |
| 2026-05-03 21:12 | 30.16988 | 99.63097 | 39236 ft | 492 kts | 65° |
| 2026-05-03 21:12 | 30.19236 | 99.70559 | 39227 ft | 490 kts | 65° |
| 2026-05-03 21:13 | 30.21452 | 99.77939 | 39233 ft | 488 kts | 65° |
| 2026-05-03 21:13 | 30.23690 | 99.85386 | 39242 ft | 487 kts | 65° |
| 2026-05-03 21:14 | 30.25904 | 99.92795 | 39244 ft | 487 kts | 65° |
| 2026-05-03 21:14 | 30.27460 | 100.00425 | 39243 ft | 496 kts | 79° |
| 2026-05-03 21:15 | 30.27428 | 100.08437 | 39243 ft | 500 kts | 94° |
| 2026-05-03 21:15 | 30.26837 | 100.16448 | 39242 ft | 499 kts | 92° |
| 2026-05-03 21:16 | 30.26236 | 100.24452 | 39250 ft | 500 kts | 93° |
| 2026-05-03 21:16 | 30.25628 | 100.32472 | 39246 ft | 501 kts | 93° |
| 2026-05-03 21:17 | 30.25121 | 100.39133 | 39244 ft | 501 kts | 93° |
| 2026-05-03 21:17 | 30.24397 | 100.48538 | 39244 ft | 503 kts | 93° |
| 2026-05-03 21:18 | 30.23771 | 100.56604 | 39226 ft | 504 kts | 93° |
| 2026-05-03 21:18 | 30.23143 | 100.64644 | 39231 ft | 500 kts | 94° |
| 2026-05-03 21:19 | 30.22512 | 100.72662 | 39238 ft | 501 kts | 93° |
| 2026-05-03 21:19 | 30.21869 | 100.80702 | 39240 ft | 502 kts | 94° |
| 2026-05-03 21:20 | 30.21223 | 100.88743 | 39239 ft | 502 kts | 93° |
| 2026-05-03 21:20 | 30.20572 | 100.96800 | 39231 ft | 505 kts | 93° |
| 2026-05-03 21:21 | 30.19914 | 101.04848 | 39237 ft | 507 kts | 94° |
| 2026-05-03 21:21 | 30.19247 | 101.12953 | 39244 ft | 506 kts | 93° |
| 2026-05-03 21:22 | 30.18578 | 101.21040 | 39250 ft | 505 kts | 93° |
| 2026-05-03 21:22 | 30.17905 | 101.29102 | 39258 ft | 503 kts | 94° |
| 2026-05-03 21:23 | 30.17229 | 101.37142 | 39277 ft | 500 kts | 94° |
| 2026-05-03 21:23 | 30.16663 | 101.43801 | 39274 ft | 501 kts | 94° |
| 2026-05-03 21:24 | 30.15984 | 101.51807 | 39280 ft | 501 kts | 94° |
| 2026-05-03 21:24 | 30.15301 | 101.59814 | 39288 ft | 501 kts | 92° |
| 2026-05-03 21:25 | 30.14744 | 101.67810 | 39284 ft | 497 kts | 87° |
| 2026-05-03 21:25 | 30.15539 | 101.75671 | 39281 ft | 490 kts | 71° |
| 2026-05-03 21:26 | 30.17804 | 101.82993 | 39265 ft | 480 kts | 59° |
| 2026-05-03 21:26 | 30.20413 | 101.90079 | 39257 ft | 478 kts | 60° |
| 2026-05-03 21:27 | 30.23024 | 101.97164 | 39275 ft | 481 kts | 60° |
| 2026-05-03 21:27 | 30.25644 | 102.04298 | 39270 ft | 483 kts | 60° |
| 2026-05-03 21:28 | 30.28250 | 102.11413 | 39263 ft | 484 kts | 60° |
| 2026-05-03 21:28 | 30.30842 | 102.18509 | 39263 ft | 470 kts | 60° |
| 2026-05-03 21:29 | 30.33383 | 102.25447 | 39260 ft | 462 kts | 60° |
| 2026-05-03 21:29 | 30.35897 | 102.32352 | 39252 ft | 468 kts | 60° |
| 2026-05-03 21:30 | 30.38442 | 102.39342 | 39222 ft | 474 kts | 60° |
| 2026-05-03 21:30 | 30.41008 | 102.46419 | 39210 ft | 477 kts | 60° |
| 2026-05-03 21:31 | 30.43562 | 102.53476 | 39206 ft | 474 kts | 60° |
| 2026-05-03 21:31 | 30.46127 | 102.60555 | 39196 ft | 477 kts | 60° |
| 2026-05-03 21:32 | 30.47408 | 102.64116 | 38883 ft | 485 kts | 60° |
| 2026-05-03 21:32 | 30.48744 | 102.67798 | 37880 ft | 500 kts | 60° |
| 2026-05-03 21:32 | 30.50076 | 102.71520 | 36948 ft | 498 kts | 61° |
| 2026-05-03 21:32 | 30.51382 | 102.75181 | 36010 ft | 497 kts | 62° |
| 2026-05-03 21:33 | 30.52710 | 102.78878 | 35056 ft | 495 kts | 61° |
| 2026-05-03 21:33 | 30.54040 | 102.82566 | 34096 ft | 495 kts | 61° |
| 2026-05-03 21:33 | 30.55360 | 102.86251 | 33096 ft | 490 kts | 62° |
| 2026-05-03 21:33 | 30.56643 | 102.89866 | 32196 ft | 481 kts | 62° |
| 2026-05-03 21:34 | 30.57919 | 102.93431 | 31291 ft | 477 kts | 62° |
| 2026-05-03 21:34 | 30.59193 | 102.96977 | 30388 ft | 475 kts | 63° |
| 2026-05-03 21:34 | 30.60455 | 103.00518 | 29429 ft | 473 kts | 63° |
| 2026-05-03 21:34 | 30.61696 | 103.04025 | 28527 ft | 466 kts | 64° |
| 2026-05-03 21:35 | 30.62876 | 103.07492 | 27536 ft | 459 kts | 65° |
| 2026-05-03 21:35 | 30.64052 | 103.10959 | 26343 ft | 461 kts | 65° |
| 2026-05-03 21:35 | 30.65231 | 103.14383 | 25461 ft | 452 kts | 65° |
| 2026-05-03 21:35 | 30.66378 | 103.17697 | 24618 ft | 444 kts | 65° |
| 2026-05-03 21:36 | 30.67509 | 103.21003 | 23785 ft | 436 kts | 66° |
| 2026-05-03 21:36 | 30.68324 | 103.24366 | 22900 ft | 430 kts | 82° |
| 2026-05-03 21:36 | 30.68314 | 103.27801 | 22104 ft | 421 kts | 94° |
| 2026-05-03 21:36 | 30.68042 | 103.31160 | 21324 ft | 413 kts | 96° |
| 2026-05-03 21:37 | 30.67699 | 103.34444 | 20563 ft | 406 kts | 97° |
| 2026-05-03 21:37 | 30.67379 | 103.37670 | 19832 ft | 399 kts | 95° |
| 2026-05-03 21:37 | 30.67116 | 103.40852 | 19110 ft | 392 kts | 95° |
| 2026-05-03 21:37 | 30.66848 | 103.43974 | 18392 ft | 386 kts | 96° |
| 2026-05-03 21:38 | 30.66560 | 103.47043 | 17662 ft | 378 kts | 96° |
| 2026-05-03 21:38 | 30.66281 | 103.50051 | 16988 ft | 371 kts | 96° |
| 2026-05-03 21:38 | 30.66014 | 103.53012 | 16327 ft | 366 kts | 96° |
| 2026-05-03 21:38 | 30.65749 | 103.55930 | 15674 ft | 361 kts | 96° |
| 2026-05-03 21:39 | 30.65489 | 103.58779 | 15039 ft | 358 kts | 96° |
| 2026-05-03 21:39 | 30.65224 | 103.61625 | 14413 ft | 348 kts | 96° |
| 2026-05-03 21:39 | 30.64975 | 103.64361 | 13790 ft | 335 kts | 96° |
| 2026-05-03 21:39 | 30.64733 | 103.67002 | 13192 ft | 323 kts | 96° |
| 2026-05-03 21:40 | 30.64496 | 103.69566 | 12622 ft | 315 kts | 96° |
| 2026-05-03 21:40 | 30.64263 | 103.72074 | 12079 ft | 310 kts | 97° |
| 2026-05-03 21:40 | 30.64031 | 103.74546 | 11537 ft | 306 kts | 97° |
| 2026-05-03 21:40 | 30.63803 | 103.76989 | 11017 ft | 303 kts | 97° |
| 2026-05-03 21:41 | 30.63577 | 103.79421 | 10483 ft | 302 kts | 97° |
| 2026-05-03 21:41 | 30.63466 | 103.81850 | 9943 ft | 302 kts | 84° |
| 2026-05-03 21:41 | 30.64199 | 103.84123 | 9322 ft | 303 kts | 58° |
| 2026-05-03 21:41 | 30.65661 | 103.85823 | 8763 ft | 295 kts | 32° |
| 2026-05-03 21:42 | 30.67488 | 103.86815 | 8269 ft | 285 kts | 22° |
| 2026-05-03 21:42 | 30.69317 | 103.87662 | 7767 ft | 280 kts | 20° |
| 2026-05-03 21:42 | 30.71094 | 103.88453 | 7285 ft | 266 kts | 21° |
| 2026-05-03 21:42 | 30.72772 | 103.89241 | 6832 ft | 254 kts | 22° |
| 2026-05-03 21:43 | 30.74386 | 103.89998 | 6381 ft | 246 kts | 22° |
| 2026-05-03 21:43 | 30.75956 | 103.90740 | 5946 ft | 244 kts | 22° |
| 2026-05-03 21:43 | 30.77550 | 103.91487 | 5505 ft | 249 kts | 22° |
| 2026-05-03 21:43 | 30.79132 | 103.92232 | 5072 ft | 244 kts | 22° |
| 2026-05-03 21:44 | 30.80693 | 103.92955 | 4647 ft | 238 kts | 22° |
| 2026-05-03 21:44 | 30.82213 | 103.93668 | 4223 ft | 231 kts | 21° |
| 2026-05-03 21:44 | 30.83673 | 103.94359 | 3972 ft | 219 kts | 22° |
| 2026-05-03 21:44 | 30.85020 | 103.94985 | 3935 ft | 200 kts | 21° |
| 2026-05-03 21:45 | 30.86317 | 103.95599 | 3921 ft | 201 kts | 22° |
| 2026-05-03 21:45 | 30.87591 | 103.96192 | 3923 ft | 195 kts | 22° |
| 2026-05-03 21:45 | 30.88851 | 103.96781 | 3938 ft | 196 kts | 21° |
| 2026-05-03 21:45 | 30.90132 | 103.97382 | 3929 ft | 201 kts | 22° |
| 2026-05-03 21:46 | 30.91430 | 103.97992 | 3946 ft | 202 kts | 22° |
| 2026-05-03 21:46 | 30.92735 | 103.98605 | 3946 ft | 204 kts | 22° |
| 2026-05-03 21:46 | 30.94046 | 103.99219 | 3945 ft | 200 kts | 22° |
| 2026-05-03 21:46 | 30.95315 | 103.99813 | 3938 ft | 195 kts | 22° |
| 2026-05-03 21:47 | 30.96595 | 104.00415 | 3939 ft | 200 kts | 22° |
| 2026-05-03 21:47 | 30.97879 | 104.01023 | 3937 ft | 197 kts | 22° |
| 2026-05-03 21:47 | 30.98966 | 104.01944 | 3939 ft | 195 kts | 55° |
| 2026-05-03 21:47 | 30.99493 | 104.03383 | 3939 ft | 195 kts | 84° |
| 2026-05-03 21:48 | 30.99318 | 104.04911 | 3935 ft | 194 kts | 112° |
| 2026-05-03 21:48 | 30.98808 | 104.06373 | 3937 ft | 194 kts | 114° |
| 2026-05-03 21:48 | 30.98301 | 104.07806 | 3946 ft | 188 kts | 115° |
| 2026-05-03 21:48 | 30.97802 | 104.09228 | 3946 ft | 191 kts | 114° |
| 2026-05-03 21:49 | 30.97249 | 104.10649 | 3945 ft | 193 kts | 125° |
| 2026-05-03 21:49 | 30.96263 | 104.11612 | 3940 ft | 183 kts | 155° |
| 2026-05-03 21:49 | 30.95040 | 104.11909 | 3934 ft | 182 kts | 184° |
| 2026-05-03 21:49 | 30.93824 | 104.11523 | 3940 ft | 182 kts | 202° |
| 2026-05-03 21:50 | 30.92641 | 104.10962 | 3941 ft | 184 kts | 202° |
| 2026-05-03 21:50 | 30.91458 | 104.10351 | 3946 ft | 188 kts | 203° |
| 2026-05-03 21:50 | 30.90244 | 104.09774 | 3953 ft | 189 kts | 202° |
| 2026-05-03 21:50 | 30.89049 | 104.09215 | 3941 ft | 179 kts | 202° |
| 2026-05-03 21:51 | 30.87893 | 104.08671 | 3948 ft | 183 kts | 201° |
| 2026-05-03 21:51 | 30.86680 | 104.08107 | 3948 ft | 192 kts | 201° |
| 2026-05-03 21:51 | 30.85446 | 104.07530 | 3940 ft | 184 kts | 202° |
| 2026-05-03 21:51 | 30.84293 | 104.06991 | 3938 ft | 178 kts | 201° |
| 2026-05-03 21:52 | 30.83132 | 104.06450 | 3943 ft | 181 kts | 201° |
| 2026-05-03 21:52 | 30.81944 | 104.05892 | 3943 ft | 184 kts | 202° |
| 2026-05-03 21:52 | 30.80794 | 104.05357 | 3940 ft | 176 kts | 202° |
| 2026-05-03 21:52 | 30.79635 | 104.04814 | 3934 ft | 181 kts | 202° |
| 2026-05-03 21:53 | 30.78436 | 104.04257 | 3943 ft | 189 kts | 202° |
| 2026-05-03 21:53 | 30.77223 | 104.03690 | 3947 ft | 186 kts | 201° |
| 2026-05-03 21:53 | 30.76093 | 104.03156 | 3953 ft | 160 kts | 202° |
| 2026-05-03 21:53 | 30.75198 | 104.02751 | 3927 ft | 122 kts | 202° |
| 2026-05-03 21:54 | 30.74475 | 104.02412 | 3917 ft | 105 kts | 201° |
| 2026-05-03 21:54 | 30.73824 | 104.02109 | 3913 ft | 96 kts | 201° |
| 2026-05-03 21:54 | 30.73172 | 104.01803 | 3912 ft | 107 kts | 201° |
| 2026-05-03 21:54 | 30.72468 | 104.01477 | 3920 ft | 110 kts | 202° |
| 2026-05-03 21:55 | 30.71773 | 104.01156 | 3937 ft | 105 kts | 199° |
| 2026-05-03 21:55 | 30.71097 | 104.00846 | 3931 ft | 103 kts | 202° |
| 2026-05-03 21:55 | 30.70434 | 104.00539 | 3934 ft | 103 kts | 202° |
| 2026-05-03 21:55 | 30.69737 | 104.00209 | 3855 ft | 108 kts | 201° |
| 2026-05-03 21:56 | 30.69040 | 103.99887 | 3708 ft | 108 kts | 201° |
| 2026-05-03 21:56 | 30.68346 | 103.99564 | 3566 ft | 106 kts | 201° |
| 2026-05-03 21:56 | 30.67674 | 103.99250 | 3441 ft | 104 kts | 201° |
| 2026-05-03 21:56 | 30.66999 | 103.98933 | 3293 ft | 106 kts | 201° |
| 2026-05-03 21:57 | 30.66317 | 103.98628 | 3156 ft | 105 kts | 202° |
| 2026-05-03 21:57 | 30.65634 | 103.98311 | 3021 ft | 107 kts | 200° |
| 2026-05-03 21:57 | 30.64942 | 103.97984 | 2878 ft | 108 kts | 201° |
| 2026-05-03 21:57 | 30.64240 | 103.97658 | 2735 ft | 108 kts | 201° |
| 2026-05-03 21:58 | 30.63551 | 103.97342 | 2579 ft | 106 kts | 201° |
| 2026-05-03 21:58 | 30.62858 | 103.97016 | 2433 ft | 109 kts | 200° |
| 2026-05-03 21:58 | 30.62147 | 103.96685 | 2278 ft | 111 kts | 202° |
| 2026-05-03 21:58 | 30.61432 | 103.96361 | 2128 ft | 110 kts | 201° |
| 2026-05-03 21:59 | 30.60721 | 103.96027 | 1978 ft | 110 kts | 201° |
| 2026-05-03 21:59 | 30.60014 | 103.95696 | 1830 ft | 107 kts | 202° |
| 2026-05-03 21:59 | 30.59367 | 103.95399 | 1686 ft | 99 kts | 202° |
| 2026-05-03 21:59 | 30.58754 | 103.95116 | 1645 ft | 87 kts | 201° |
| 2026-05-03 22:00 | 30.58254 | 103.94881 | 1640 ft | 67 kts | 202° |
| 2026-05-03 22:00 | 30.58037 | 103.94790 | 1642 ft | 6 kts | 198° |
| 2026-05-03 22:00 | 30.57988 | 103.94841 | 1641 ft | 15 kts | 114° |
| 2026-05-03 22:00 | 30.57960 | 103.94931 | 1641 ft | 0 kts | 104° |
| 2026-05-03 22:01 | 30.57947 | 103.94980 | 1641 ft | 11 kts | 112° |
| 2026-05-03 22:01 | 30.57916 | 103.95066 | 1641 ft | 12 kts | 112° |
| 2026-05-03 22:01 | 30.57929 | 103.95154 | 1641 ft | 13 kts | 28° |
| 2026-05-03 22:01 | 30.58015 | 103.95195 | 1641 ft | 9 kts | 21° |
| 2026-05-03 22:02 | 30.58079 | 103.95225 | 1641 ft | 11 kts | 22° |
| 2026-05-03 22:02 | 30.58130 | 103.95259 | 1641 ft | 9 kts | 57° |
| 2026-05-03 22:02 | 30.58125 | 103.95330 | 1641 ft | 10 kts | 112° |
| 2026-05-03 22:02 | 30.58102 | 103.95395 | 1641 ft | 9 kts | 111° |
| 2026-05-03 22:03 | 30.58080 | 103.95459 | 1641 ft | 9 kts | 111° |
| 2026-05-03 22:03 | 30.58033 | 103.95479 | 1641 ft | 5 kts | 198° |
| 2026-05-03 22:03 | 30.58004 | 103.95467 | 1641 ft | 0 kts | 200° |
| 2026-05-03 22:03 | 30.57994 | 103.95462 | 1641 ft | 0 kts | 202° |